Time;durP1;ratioP1;P1;durP2;ratioP2;P2;SDS_P1;SDS_P2;PMS_P1;PMS_P2;Temp;Humidity;BMP_temperature;BMP_pressure;BME280_temperature;BME280_humidity;BME280_pressure;Samples;Min_cycle;Max_cycle;Signal;HPM_P1;HPM_P2
2022/09/03 00:02:34;;;;;;;2.33;1.20;;;16.00;84.20;;;;;;4986746;28;20046;-84
2022/09/03 00:05:12;;;;;;;2.28;1.60;;;16.00;84.20;;;;;;5001180;28;20491;-88
2022/09/03 00:07:56;;;;;;;2.63;1.20;;;16.00;83.90;;;;;;4963525;28;20046;-87
2022/09/03 00:10:40;;;;;;;2.25;1.15;;;16.00;83.90;;;;;;4974421;28;20078;-86
2022/09/03 00:13:08;;;;;;;2.65;1.27;;;16.00;83.10;;;;;;4977816;28;20034;-88
2022/09/03 00:15:38;;;;;;;1.42;1.23;;;16.00;82.60;;;;;;4974135;28;20523;-86
2022/09/03 00:18:17;;;;;;;1.75;1.10;;;16.00;83.70;;;;;;4974724;28;20049;-88
2022/09/03 00:20:50;;;;;;;1.42;1.13;;;15.90;85.00;;;;;;4971249;28;20046;-85
2022/09/03 00:23:21;;;;;;;3.22;1.15;;;15.80;84.40;;;;;;4993453;28;20035;-86
2022/09/03 00:26:00;;;;;;;2.47;1.30;;;15.70;85.80;;;;;;4980577;28;20051;-86
2022/09/03 00:28:32;;;;;;;2.53;1.10;;;15.70;86.00;;;;;;4996426;28;20047;-85
2022/09/03 00:31:37;;;;;;;1.33;1.20;;;15.70;86.00;;;;;;4978158;28;20039;-89
2022/09/03 00:34:22;;;;;;;5.25;1.23;;;15.70;88.70;;;;;;4976192;28;20525;-88
2022/09/03 00:36:48;;;;;;;1.55;1.00;;;15.60;86.00;;;;;;4974554;28;20038;-88
2022/09/03 00:39:22;;;;;;;2.45;1.30;;;15.50;86.70;;;;;;4973457;28;20039;-88
2022/09/03 00:42:07;;;;;;;4.13;1.40;;;15.50;87.50;;;;;;4976120;28;20035;-89
2022/09/03 00:45:00;;;;;;;2.42;1.15;;;15.50;88.90;;;;;;4972979;28;20039;-88
2022/09/03 00:47:50;;;;;;;1.90;1.02;;;15.40;87.80;;;;;;4971740;28;20066;-88
2022/09/03 00:50:44;;;;;;;2.58;1.17;;;15.30;88.50;;;;;;4970869;28;20049;-88
2022/09/03 00:53:25;;;;;;;2.95;1.10;;;15.30;88.50;;;;;;4997795;28;20392;-85
2022/09/03 00:56:07;;;;;;;2.55;1.30;;;15.20;88.70;;;;;;4971565;28;20043;-88
2022/09/03 00:59:10;;;;;;;1.52;1.00;;;15.20;90.90;;;;;;4995851;28;20046;-87
2022/09/03 01:02:14;;;;;;;2.55;1.08;;;15.20;90.20;;;;;;4987080;28;20047;-89
2022/09/03 01:04:59;;;;;;;;;;;15.20;91.00;;;;;;4978083;28;20113;-89
2022/09/03 01:07:50;;;;;;;2.33;1.10;;;15.20;92.10;;;;;;4973134;28;19964;-90
2022/09/03 01:10:19;;;;;;;2.28;1.20;;;15.10;90.10;;;;;;4950193;28;20506;-90
2022/09/03 01:13:01;;;;;;;1.92;1.13;;;15.10;90.70;;;;;;4972682;28;20503;-89
2022/09/03 01:15:47;;;;;;;1.05;0.90;;;15.10;90.50;;;;;;4971546;28;20043;-89
2022/09/03 01:18:27;;;;;;;1.30;1.20;;;15.20;90.50;;;;;;4980473;28;20043;-88
2022/09/03 01:21:10;;;;;;;1.08;0.98;;;15.20;91.10;;;;;;4973725;28;20035;-88
2022/09/03 01:24:06;;;;;;;2.20;0.98;;;15.20;93.00;;;;;;4956331;28;20114;-86
2022/09/03 01:26:50;;;;;;;2.10;1.10;;;15.20;91.30;;;;;;4976045;28;20525;-87
2022/09/03 01:29:35;;;;;;;1.38;1.27;;;15.20;91.40;;;;;;4973471;28;20603;-87
2022/09/03 01:32:10;;;;;;;2.67;1.30;;;15.20;91.40;;;;;;4976036;28;20037;-87
2022/09/03 01:35:08;;;;;;;2.17;1.45;;;15.20;91.30;;;;;;4971908;28;20039;-86
2022/09/03 01:37:37;;;;;;;3.30;1.00;;;15.20;91.60;;;;;;4944392;28;20629;-87
2022/09/03 01:40:17;;;;;;;3.88;1.15;;;15.20;92.30;;;;;;4972455;28;20043;-87
2022/09/03 01:42:49;;;;;;;1.48;0.90;;;15.20;92.20;;;;;;4971288;28;20042;-88
2022/09/03 01:45:27;;;;;;;3.72;1.08;;;15.20;92.40;;;;;;4978957;28;20517;-87
2022/09/03 01:48:16;;;;;;;2.08;1.10;;;15.20;92.40;;;;;;4953607;28;20047;-88
2022/09/03 01:50:58;;;;;;;1.20;0.95;;;15.20;91.90;;;;;;4937890;28;20142;-90
2022/09/03 01:53:46;;;;;;;1.25;1.15;;;15.20;92.40;;;;;;4980532;28;20446;-88
2022/09/03 01:56:32;;;;;;;1.83;1.02;;;15.20;92.50;;;;;;4974880;28;20045;-88
2022/09/03 01:59:20;;;;;;;2.40;1.15;;;15.20;92.20;;;;;;4979929;28;20042;-88
2022/09/03 02:01:55;;;;;;;1.17;1.00;;;15.20;92.60;;;;;;4971924;28;20038;-89
2022/09/03 02:04:27;;;;;;;1.48;0.82;;;15.20;92.40;;;;;;4979027;28;20042;-87
2022/09/03 02:06:56;;;;;;;4.53;2.15;;;15.20;92.20;;;;;;4975586;28;20043;-88
2022/09/03 02:09:23;;;;;;;1.50;1.23;;;15.30;92.10;;;;;;4978970;28;20031;-89
2022/09/03 02:12:10;;;;;;;1.40;1.00;;;15.30;91.70;;;;;;4981331;28;20038;-89
2022/09/03 02:14:36;;;;;;;3.13;1.00;;;15.30;92.70;;;;;;4999729;28;20038;-86
2022/09/03 02:17:03;;;;;;;2.35;1.10;;;15.30;92.50;;;;;;5007910;28;20090;-85
2022/09/03 02:19:30;;;;;;;1.95;1.20;;;15.30;92.70;;;;;;4963231;28;20526;-87
2022/09/03 02:21:57;;;;;;;1.85;0.90;;;15.30;93.40;;;;;;4958325;28;20043;-89
2022/09/03 02:24:24;;;;;;;1.90;1.10;;;15.30;93.30;;;;;;4957802;28;20119;-87
2022/09/03 02:26:51;;;;;;;1.60;1.30;;;15.30;93.50;;;;;;4980644;28;20046;-89
2022/09/03 02:29:18;;;;;;;1.50;1.10;;;15.30;92.50;;;;;;4975471;28;20113;-89
2022/09/03 02:31:44;;;;;;;2.03;1.10;;;15.30;92.80;;;;;;4973145;28;20047;-89
2022/09/03 02:34:09;;;;;;;1.73;1.10;;;15.30;92.10;;;;;;4975146;28;20065;-89
2022/09/03 02:36:40;;;;;;;2.00;0.93;;;15.40;91.70;;;;;;4972346;28;20042;-88
2022/09/03 02:39:06;;;;;;;2.22;1.02;;;15.40;91.50;;;;;;4976333;28;20031;-89
2022/09/03 02:41:32;;;;;;;1.65;1.10;;;15.40;91.20;;;;;;4960724;28;20031;-88
2022/09/03 02:44:24;;;;;;;1.77;0.82;;;15.40;91.20;;;;;;4978924;28;20085;-88
2022/09/03 02:46:55;;;;;;;2.08;1.15;;;15.50;91.00;;;;;;4968740;28;20046;-87
2022/09/03 02:49:21;;;;;;;0.88;0.80;;;15.40;91.50;;;;;;4975841;28;20042;-88
2022/09/03 02:51:47;;;;;;;1.85;1.38;;;15.50;91.60;;;;;;4975870;28;20404;-89
2022/09/03 02:54:13;;;;;;;1.15;1.05;;;15.50;91.60;;;;;;4978835;28;20393;-88
2022/09/03 02:56:40;;;;;;;1.40;1.10;;;15.50;91.70;;;;;;4976958;28;20047;-88
2022/09/03 02:59:08;;;;;;;1.23;1.13;;;15.50;91.50;;;;;;4982578;28;20120;-89
2022/09/03 03:01:35;;;;;;;3.55;1.13;;;15.50;90.70;;;;;;4977274;28;20031;-89
2022/09/03 03:04:01;;;;;;;2.22;1.17;;;15.50;91.00;;;;;;4973750;28;20039;-90
2022/09/03 03:06:27;;;;;;;2.30;1.05;;;15.50;91.10;;;;;;4980147;28;20057;-87
2022/09/03 03:08:54;;;;;;;1.48;0.98;;;15.50;91.20;;;;;;4974529;28;20041;-86
2022/09/03 03:11:23;;;;;;;1.10;1.00;;;15.50;90.90;;;;;;4964081;28;20042;-89
2022/09/03 03:13:49;;;;;;;1.25;1.00;;;15.50;91.10;;;;;;4973564;28;20050;-88
2022/09/03 03:16:15;;;;;;;0.90;0.90;;;15.50;91.00;;;;;;4970096;28;20039;-88
2022/09/03 03:18:42;;;;;;;1.00;0.80;;;15.50;90.80;;;;;;4984658;28;20089;-88
2022/09/03 03:21:10;;;;;;;2.05;0.90;;;15.50;90.60;;;;;;4976967;28;20046;-88
2022/09/03 03:23:36;;;;;;;1.58;1.00;;;15.50;90.90;;;;;;4948821;28;20034;-89
2022/09/03 03:26:04;;;;;;;2.22;1.00;;;15.40;90.90;;;;;;4981491;28;20043;-89
2022/09/03 03:28:33;;;;;;;2.47;1.00;;;15.40;91.90;;;;;;4980836;28;20109;-89
2022/09/03 03:31:06;;;;;;;1.40;1.10;;;15.30;92.20;;;;;;4958442;28;20062;-88
2022/09/03 03:33:32;;;;;;;1.40;1.10;;;15.30;92.90;;;;;;4977604;28;20098;-88
2022/09/03 03:36:04;;;;;;;1.80;1.23;;;15.20;91.90;;;;;;4975091;28;20502;-89
2022/09/03 03:38:29;;;;;;;2.10;1.00;;;15.20;92.40;;;;;;4978042;28;20074;-86
2022/09/03 03:40:55;;;;;;;2.90;1.10;;;15.10;92.90;;;;;;4973684;28;20484;-88
2022/09/03 03:43:20;;;;;;;4.43;1.30;;;15.00;92.80;;;;;;4973973;28;20066;-88
2022/09/03 03:45:56;;;;;;;2.50;1.23;;;15.00;93.10;;;;;;4974124;28;20043;-89
2022/09/03 03:48:21;;;;;;;1.30;1.10;;;15.00;93.20;;;;;;4975595;28;20050;-89
2022/09/03 03:50:47;;;;;;;1.20;0.90;;;15.00;92.90;;;;;;4978334;28;20068;-89
2022/09/03 03:53:13;;;;;;;1.80;1.20;;;14.90;93.00;;;;;;4975883;28;20380;-89
2022/09/03 03:55:40;;;;;;;1.15;0.95;;;14.90;93.90;;;;;;4960526;28;20054;-88
2022/09/03 03:58:06;;;;;;;1.42;1.33;;;14.80;94.00;;;;;;4980018;28;20043;-87
2022/09/03 04:00:36;;;;;;;1.48;1.38;;;14.80;94.50;;;;;;4979910;28;20061;-86
2022/09/03 04:03:03;;;;;;;1.40;1.25;;;14.70;95.40;;;;;;4968006;28;20098;-89
2022/09/03 04:05:28;;;;;;;1.60;1.10;;;14.70;95.40;;;;;;4966878;28;20039;-87
2022/09/03 04:07:54;;;;;;;1.77;1.33;;;14.70;95.00;;;;;;4980457;28;20564;-86
2022/09/03 04:10:20;;;;;;;2.17;1.20;;;14.60;95.00;;;;;;4975093;28;20038;-88
2022/09/03 04:12:46;;;;;;;1.63;1.40;;;14.50;95.80;;;;;;4954265;28;20027;-88
2022/09/03 04:15:11;;;;;;;1.73;1.20;;;14.50;96.20;;;;;;4977114;28;20034;-88
2022/09/03 04:17:38;;;;;;;2.17;1.30;;;14.40;96.20;;;;;;4964754;28;20046;-88
2022/09/03 04:20:04;;;;;;;1.10;1.00;;;14.40;96.70;;;;;;4978390;28;20043;-89
2022/09/03 04:22:30;;;;;;;2.08;1.20;;;14.30;96.90;;;;;;4974764;28;20050;-89
2022/09/03 04:24:56;;;;;;;2.28;1.30;;;14.30;96.90;;;;;;4972550;28;20097;-88
2022/09/03 04:27:21;;;;;;;3.05;1.45;;;14.30;98.20;;;;;;4974200;28;20066;-88
2022/09/03 04:29:47;;;;;;;2.88;1.40;;;14.20;97.70;;;;;;4978788;28;20046;-88
2022/09/03 04:34:57;;;;;;;1.42;1.33;;;14.10;98.40;;;;;;4975481;28;20058;-88
2022/09/03 04:37:23;;;;;;;2.33;1.80;;;14.00;99.00;;;;;;4980121;28;20188;-87
2022/09/03 04:39:49;;;;;;;1.83;1.55;;;14.00;99.20;;;;;;4971944;28;20046;-89
2022/09/03 04:42:14;;;;;;;3.00;1.58;;;14.00;99.80;;;;;;4979008;28;20030;-89
2022/09/03 04:44:40;;;;;;;2.47;1.50;;;13.90;99.60;;;;;;4971011;28;20043;-87
2022/09/03 04:47:06;;;;;;;2.17;1.42;;;13.90;99.90;;;;;;4996090;28;20023;-83
2022/09/03 04:49:33;;;;;;;2.28;1.55;;;13.90;99.90;;;;;;4998840;28;20031;-85
2022/09/03 04:51:59;;;;;;;1.60;1.40;;;13.90;99.90;;;;;;4987963;28;20045;-87
2022/09/03 04:54:24;;;;;;;2.15;1.35;;;13.90;99.90;;;;;;4981548;28;20475;-88
2022/09/03 04:56:50;;;;;;;2.08;1.88;;;13.90;99.90;;;;;;4955967;28;20415;-87
2022/09/03 04:59:15;;;;;;;2.90;1.60;;;13.90;99.90;;;;;;4969526;28;20058;-87
2022/09/03 05:01:42;;;;;;;1.50;1.40;;;13.90;99.90;;;;;;4970019;28;20049;-88
2022/09/03 05:04:08;;;;;;;1.67;1.58;;;13.90;99.90;;;;;;4976622;28;20038;-88
2022/09/03 05:06:36;;;;;;;1.55;1.40;;;14.00;99.90;;;;;;4972978;28;20041;-87
2022/09/03 05:09:05;;;;;;;1.52;1.42;;;14.00;99.90;;;;;;4982398;28;20043;-88
2022/09/03 05:11:33;;;;;;;3.50;1.60;;;14.00;99.90;;;;;;4958056;28;20043;-88
2022/09/03 05:13:59;;;;;;;1.70;1.60;;;14.10;99.90;;;;;;4975617;28;20053;-88
2022/09/03 05:16:28;;;;;;;2.15;1.55;;;14.00;99.90;;;;;;4960071;28;20050;-88
2022/09/03 05:18:58;;;;;;;1.75;1.30;;;14.00;99.90;;;;;;4963315;28;20042;-86
2022/09/03 05:21:25;;;;;;;1.65;1.55;;;14.10;99.90;;;;;;4960164;28;20045;-86
2022/09/03 05:23:51;;;;;;;1.90;1.50;;;14.10;99.90;;;;;;4976345;28;20507;-87
2022/09/03 05:26:31;;;;;;;3.25;1.80;;;14.20;99.90;;;;;;4974877;28;20038;-88
2022/09/03 05:29:06;;;;;;;2.83;1.60;;;14.20;99.90;;;;;;4984393;28;20043;-86
2022/09/03 05:31:33;;;;;;;3.00;1.50;;;14.30;99.90;;;;;;4981621;28;20550;-89
2022/09/03 05:34:05;;;;;;;3.58;1.80;;;14.40;99.90;;;;;;4985139;28;20035;-88
2022/09/03 05:36:34;;;;;;;1.80;1.48;;;14.40;99.90;;;;;;4965634;28;20058;-88
2022/09/03 05:39:03;;;;;;;2.28;1.70;;;14.50;99.90;;;;;;4985298;28;20141;-90
2022/09/03 05:41:29;;;;;;;2.90;1.55;;;14.50;99.90;;;;;;4982880;28;20438;-88
2022/09/03 05:43:57;;;;;;;2.58;1.85;;;14.60;99.90;;;;;;4981716;28;20046;-88
2022/09/03 05:46:30;;;;;;;1.92;1.70;;;14.70;99.90;;;;;;4973382;28;20105;-89
2022/09/03 05:49:04;;;;;;;3.50;1.85;;;14.70;99.90;;;;;;4969721;28;20050;-90
2022/09/03 05:51:33;;;;;;;2.45;1.90;;;14.80;99.90;;;;;;4987568;28;20049;-89
2022/09/03 05:53:59;;;;;;;2.40;1.52;;;14.80;99.90;;;;;;4972670;28;20525;-90
2022/09/03 05:56:27;;;;;;;3.13;1.75;;;14.90;99.90;;;;;;4988577;28;20039;-89
2022/09/03 05:59:06;;;;;;;2.03;1.92;;;14.90;99.90;;;;;;4991721;28;20038;-89
2022/09/03 06:01:40;;;;;;;3.42;1.95;;;14.90;99.90;;;;;;4991331;28;20074;-89
2022/09/03 06:04:13;;;;;;;3.20;1.40;;;15.00;99.90;;;;;;4978695;28;20034;-91
2022/09/03 06:06:41;;;;;;;2.65;1.60;;;14.90;99.90;;;;;;4972590;28;20039;-90
2022/09/03 06:09:10;;;;;;;4.22;1.70;;;14.90;99.90;;;;;;4985464;28;20073;-90
2022/09/03 06:11:38;;;;;;;2.78;1.63;;;14.80;99.90;;;;;;4959550;28;20033;-90
2022/09/03 06:14:08;;;;;;;2.20;2.00;;;14.80;99.90;;;;;;4977014;28;20038;-90
2022/09/03 06:16:37;;;;;;;3.22;2.03;;;14.80;99.90;;;;;;4967580;28;20035;-91
2022/09/03 06:19:08;;;;;;;1.70;1.60;;;14.80;99.90;;;;;;4952519;28;20647;-89
2022/09/03 06:21:35;;;;;;;5.43;1.88;;;14.80;99.90;;;;;;4965643;28;20133;-92
2022/09/03 06:24:01;;;;;;;3.70;2.10;;;14.80;99.90;;;;;;4984188;28;20038;-88
2022/09/03 06:26:28;;;;;;;3.13;2.05;;;14.80;99.90;;;;;;4967531;28;20049;-88
2022/09/03 06:28:55;;;;;;;3.40;2.10;;;14.80;99.90;;;;;;4968531;28;20039;-88
2022/09/03 06:31:21;;;;;;;2.15;1.75;;;14.80;99.90;;;;;;4976099;28;20041;-87
2022/09/03 06:33:47;;;;;;;2.90;1.95;;;14.80;99.90;;;;;;4969427;28;20344;-88
2022/09/03 06:36:16;;;;;;;4.50;2.10;;;14.80;99.90;;;;;;4970652;28;20031;-86
2022/09/03 06:38:43;;;;;;;4.82;2.00;;;14.80;99.90;;;;;;4984711;28;20451;-87
2022/09/03 06:41:22;;;;;;;3.63;1.98;;;14.80;99.90;;;;;;4988372;28;21273;-89
2022/09/03 06:43:49;;;;;;;3.03;2.00;;;14.90;99.90;;;;;;4966350;28;20074;-87
2022/09/03 06:46:22;;;;;;;2.60;1.95;;;14.90;99.90;;;;;;4981070;28;20062;-88
2022/09/03 06:48:52;;;;;;;3.95;2.20;;;14.90;99.90;;;;;;4982030;28;20039;-87
2022/09/03 06:51:22;;;;;;;2.97;2.15;;;14.90;99.90;;;;;;4981914;28;20042;-87
2022/09/03 06:53:50;;;;;;;2.33;1.95;;;15.00;99.90;;;;;;4980125;28;20038;-88
2022/09/03 06:56:27;;;;;;;2.75;1.90;;;15.00;99.90;;;;;;4978074;28;20035;-87
2022/09/03 06:58:55;;;;;;;2.53;2.08;;;15.00;99.90;;;;;;4983205;28;20418;-87
2022/09/03 07:01:27;;;;;;;3.60;1.98;;;15.10;99.90;;;;;;4984944;28;20045;-88
2022/09/03 07:03:55;;;;;;;3.00;2.10;;;15.10;99.90;;;;;;4980803;28;20038;-87
2022/09/03 07:06:23;;;;;;;2.55;1.80;;;15.20;99.90;;;;;;4964648;28;20635;-88
2022/09/03 07:08:52;;;;;;;4.68;1.95;;;15.20;99.90;;;;;;4952275;28;20508;-88
2022/09/03 07:11:21;;;;;;;3.47;2.28;;;15.30;99.90;;;;;;4961108;28;20562;-81
2022/09/03 07:13:49;;;;;;;5.15;2.13;;;15.40;99.90;;;;;;4962375;28;20042;-80
2022/09/03 07:16:16;;;;;;;3.33;2.15;;;15.40;99.90;;;;;;4982237;28;20046;-88
2022/09/03 07:18:45;;;;;;;3.88;1.80;;;15.50;99.90;;;;;;4983519;28;20070;-90
2022/09/03 07:21:18;;;;;;;2.35;1.85;;;15.60;99.90;;;;;;4981889;28;20127;-93
2022/09/03 07:23:46;;;;;;;3.95;1.98;;;15.60;99.90;;;;;;4966792;28;20043;-93
2022/09/03 07:26:18;;;;;;;1.80;1.70;;;15.80;99.90;;;;;;4977082;28;20025;-96
2022/09/03 07:28:50;;;;;;;2.35;1.60;;;15.80;99.90;;;;;;4985004;28;20051;-92
2022/09/03 07:31:18;;;;;;;3.65;1.77;;;15.90;99.90;;;;;;4993921;28;20054;-96
2022/09/03 07:33:47;;;;;;;3.72;2.05;;;16.00;99.90;;;;;;5010849;22;20068;-25
2022/09/03 07:36:15;;;;;;;2.40;1.60;;;16.00;99.90;;;;;;5033444;28;20487;-29
2022/09/03 07:38:45;;;;;;;2.47;2.00;;;16.20;99.90;;;;;;5016080;28;20498;-30
2022/09/03 07:41:31;;;;;;;2.85;1.77;;;16.30;99.90;;;;;;5006433;28;20116;-33
2022/09/03 07:44:07;;;;;;;4.03;1.60;;;16.50;99.80;;;;;;5001699;28;20036;-31
2022/09/03 07:46:35;;;;;;;2.50;1.70;;;16.70;99.20;;;;;;4970816;28;20484;-33
2022/09/03 07:49:02;;;;;;;2.35;1.83;;;17.00;99.10;;;;;;4971814;28;20129;-29
2022/09/03 07:51:30;;;;;;;4.00;1.52;;;17.20;96.60;;;;;;5012730;28;20033;-30
2022/09/03 07:53:59;;;;;;;2.75;1.75;;;17.50;95.50;;;;;;5006329;28;20084;-30
2022/09/03 07:56:26;;;;;;;2.85;1.75;;;17.80;94.60;;;;;;4992481;28;20376;-30
2022/09/03 07:58:54;;;;;;;2.65;1.70;;;18.10;93.70;;;;;;4994660;28;20042;-31
2022/09/03 08:01:22;;;;;;;2.65;1.50;;;18.40;92.10;;;;;;4994009;28;20040;-31
2022/09/03 08:03:50;;;;;;;2.20;1.50;;;18.70;91.00;;;;;;4988254;28;20471;-30
2022/09/03 08:06:18;;;;;;;3.40;1.63;;;18.90;90.90;;;;;;4996392;28;20048;-27
2022/09/03 08:08:45;;;;;;;2.47;1.70;;;19.20;88.20;;;;;;5011717;28;20041;-28
2022/09/03 08:11:16;;;;;;;4.03;1.60;;;19.40;83.90;;;;;;4994038;28;20041;-30
2022/09/03 08:14:00;;;;;;;2.58;1.77;;;19.60;81.60;;;;;;4998274;28;20041;-29
2022/09/03 08:16:27;;;;;;;;;;;19.90;80.20;;;;;;5001388;28;20562;-30
2022/09/03 08:18:53;;;;;;;3.58;1.40;;;20.10;77.40;;;;;;4992518;28;19970;-28
2022/09/03 08:21:19;;;;;;;3.05;1.65;;;20.30;77.60;;;;;;4997188;28;20037;-29
2022/09/03 08:23:47;;;;;;;2.10;1.30;;;20.40;76.30;;;;;;4992743;28;20030;-31
2022/09/03 08:26:15;;;;;;;1.98;1.70;;;20.60;74.40;;;;;;4994934;28;20164;-29
2022/09/03 08:28:42;;;;;;;4.32;1.58;;;20.80;72.50;;;;;;4994250;28;20411;-30
2022/09/03 08:31:16;;;;;;;1.70;1.38;;;20.90;72.70;;;;;;4995662;28;20045;-29
2022/09/03 08:33:44;;;;;;;2.60;1.58;;;21.10;70.80;;;;;;4994020;28;20564;-29
2022/09/03 08:36:24;;;;;;;1.50;1.40;;;21.30;69.50;;;;;;5001616;28;20057;-29
2022/09/03 08:38:55;;;;;;;2.20;1.30;;;21.50;70.60;;;;;;4982056;28;20034;-31
2022/09/03 08:41:29;;;;;;;1.55;1.15;;;21.80;69.60;;;;;;4992938;28;20034;-29
2022/09/03 08:43:55;;;;;;;2.05;1.50;;;22.10;67.60;;;;;;4991524;28;20037;-32
2022/09/03 08:46:26;;;;;;;3.35;1.60;;;22.60;67.90;;;;;;4990252;28;20125;-29
2022/09/03 08:48:54;;;;;;;2.67;1.30;;;22.80;67.10;;;;;;4993390;28;20052;-30
2022/09/03 08:51:26;;;;;;;3.80;1.65;;;23.10;65.60;;;;;;4993926;28;20503;-31
2022/09/03 08:53:56;;;;;;;9.20;1.83;;;23.30;64.70;;;;;;4975320;28;20399;-30
2022/09/03 08:56:30;;;;;;;4.53;1.50;;;23.50;63.50;;;;;;4981672;28;20651;-29
2022/09/03 08:58:56;;;;;;;3.38;1.40;;;23.70;61.90;;;;;;4994431;28;20395;-30
2022/09/03 09:01:40;;;;;;;1.30;1.20;;;23.80;61.40;;;;;;4976263;28;20122;-30
2022/09/03 09:04:47;;;;;;;3.88;1.48;;;24.00;59.40;;;;;;4993904;28;20029;-30
2022/09/03 09:07:45;;;;;;;2.15;1.20;;;24.20;59.20;;;;;;4991778;28;20049;-30
2022/09/03 09:10:51;;;;;;;5.07;1.40;;;24.30;57.80;;;;;;4990824;28;20538;-32
2022/09/03 09:13:50;;;;;;;2.40;1.20;;;24.50;58.30;;;;;;4993526;28;20488;-29
2022/09/03 09:16:33;;;;;;;3.10;1.40;;;24.80;55.70;;;;;;5011164;28;20057;-33
2022/09/03 09:19:21;;;;;;;2.80;1.50;;;25.10;56.60;;;;;;5000978;28;20052;-31
2022/09/03 09:22:06;;;;;;;3.35;1.70;;;25.30;56.60;;;;;;4997283;28;20073;-29
2022/09/03 09:24:43;;;;;;;2.70;1.30;;;25.70;55.80;;;;;;5010662;28;20038;-30
2022/09/03 09:27:13;;;;;;;4.88;1.30;;;25.70;53.80;;;;;;4989836;28;20397;-30
2022/09/03 09:29:40;;;;;;;1.92;1.30;;;25.70;55.20;;;;;;4977321;28;20034;-29
2022/09/03 09:32:09;;;;;;;2.95;1.52;;;26.10;54.60;;;;;;4994295;28;20113;-31
2022/09/03 09:34:37;;;;;;;5.85;1.45;;;26.30;52.30;;;;;;4991528;28;20131;-30
2022/09/03 09:37:10;;;;;;;2.03;1.10;;;26.40;52.00;;;;;;4996560;28;20125;-30
2022/09/03 09:39:36;;;;;;;4.63;1.50;;;26.50;51.10;;;;;;4990565;28;20038;-30
2022/09/03 09:42:09;;;;;;;2.03;1.20;;;26.40;50.10;;;;;;5008317;28;20484;-30
2022/09/03 09:44:36;;;;;;;;;;;26.60;49.40;;;;;;4997924;28;20431;-29
2022/09/03 09:47:20;;;;;;;2.35;1.10;;;26.60;47.60;;;;;;4992481;28;19925;-31
2022/09/03 09:49:46;;;;;;;3.53;1.27;;;26.70;48.90;;;;;;4992820;28;20485;-30
2022/09/03 09:52:14;;;;;;;5.72;1.48;;;26.80;50.60;;;;;;4998185;28;20165;-33
2022/09/03 09:54:42;;;;;;;2.35;1.08;;;27.00;49.80;;;;;;4996877;28;20549;-31
2022/09/03 09:57:17;;;;;;;2.45;1.30;;;27.30;49.00;;;;;;5009618;28;20476;-31
2022/09/03 09:59:45;;;;;;;1.92;1.25;;;27.40;46.70;;;;;;4991382;28;20034;-30
2022/09/03 10:02:14;;;;;;;1.23;1.00;;;27.60;49.10;;;;;;4999852;28;20164;-30
2022/09/03 10:04:44;;;;;;;1.35;1.15;;;27.60;47.60;;;;;;4996622;28;20096;-30
2022/09/03 10:07:28;;;;;;;1.00;0.90;;;27.50;47.40;;;;;;4997289;28;20056;-30
2022/09/03 10:10:12;;;;;;;1.23;1.10;;;27.60;46.90;;;;;;4991583;28;20480;-32
2022/09/03 10:12:58;;;;;;;3.63;1.20;;;27.70;46.60;;;;;;4997334;28;20033;-30
2022/09/03 10:15:29;;;;;;;1.38;1.00;;;28.00;46.00;;;;;;4997125;28;20041;-29
2022/09/03 10:18:13;;;;;;;2.00;1.10;;;28.10;45.50;;;;;;5014224;28;21533;-32
2022/09/03 10:21:11;;;;;;;3.97;1.20;;;28.20;46.40;;;;;;4989308;28;20080;-33
2022/09/03 10:27:17;;;;;;;1.25;0.90;;;28.50;42.70;;;;;;5095941;22;20045;-78
2022/09/03 10:29:44;;;;;;;1.92;1.20;;;28.60;45.00;;;;;;5012380;28;20037;-78
2022/09/03 10:32:47;;;;;;;1.73;1.15;;;28.80;44.80;;;;;;5004715;28;20037;-83
2022/09/03 10:35:30;;;;;;;3.45;1.10;;;28.90;43.30;;;;;;5007160;28;20514;-78
2022/09/03 10:38:24;;;;;;;2.30;1.05;;;28.70;42.20;;;;;;4993812;28;20042;-92
2022/09/03 10:41:27;;;;;;;3.42;1.13;;;28.50;43.10;;;;;;5012368;28;20452;-92
2022/09/03 10:44:05;;;;;;;3.95;1.00;;;28.80;43.40;;;;;;5016280;28;20049;-87
2022/09/03 10:46:58;;;;;;;1.95;1.20;;;29.00;42.50;;;;;;4980852;28;20041;-90
2022/09/03 10:50:00;;;;;;;3.75;1.30;;;29.10;42.40;;;;;;5010236;28;20058;-91
2022/09/03 10:52:34;;;;;;;3.03;1.15;;;29.30;41.40;;;;;;4991621;28;20469;-89
2022/09/03 10:55:08;;;;;;;1.10;0.93;;;29.40;42.50;;;;;;4996750;28;20465;-89
2022/09/03 10:57:49;;;;;;;2.50;0.90;;;29.50;42.00;;;;;;4976508;28;20038;-88
2022/09/03 11:00:23;;;;;;;2.92;1.30;;;29.70;40.50;;;;;;4987718;28;20978;-89
2022/09/03 11:03:19;;;;;;;4.22;1.23;;;29.90;41.50;;;;;;5004901;28;20376;-89
2022/09/03 11:06:08;;;;;;;1.42;0.98;;;30.10;41.50;;;;;;4990207;28;20034;-90
2022/09/03 11:08:46;;;;;;;2.15;1.00;;;30.50;40.90;;;;;;4969439;28;20804;-89
2022/09/03 11:11:25;;;;;;;3.65;1.00;;;30.30;40.30;;;;;;4973883;28;20039;-90
2022/09/03 11:14:07;;;;;;;1.38;0.90;;;30.20;38.60;;;;;;4987157;28;20038;-92
2022/09/03 11:16:39;;;;;;;4.22;0.90;;;30.30;38.20;;;;;;4975456;28;20437;-91
2022/09/03 11:19:10;;;;;;;2.22;0.90;;;30.10;38.80;;;;;;4970711;28;20121;-89
2022/09/03 11:21:40;;;;;;;3.00;1.00;;;30.20;39.60;;;;;;4974421;28;20034;-90
2022/09/03 11:24:12;;;;;;;1.10;0.95;;;30.40;39.70;;;;;;4990278;28;20076;-89
2022/09/03 11:26:45;;;;;;;10.70;1.20;;;30.60;39.10;;;;;;4975227;28;20049;-90
2022/09/03 11:29:24;;;;;;;3.10;1.20;;;30.80;38.20;;;;;;4975621;28;20038;-91
2022/09/03 11:32:20;;;;;;;2.38;1.10;;;31.00;36.90;;;;;;4977992;28;20110;-89
2022/09/03 11:34:53;;;;;;;2.85;1.10;;;30.90;35.70;;;;;;5006918;28;20049;-89
2022/09/03 11:37:29;;;;;;;2.95;1.13;;;30.80;36.30;;;;;;4970266;28;20058;-87
2022/09/03 11:40:28;;;;;;;2.22;1.00;;;31.20;38.00;;;;;;4971433;28;20529;-89
2022/09/03 11:43:44;;;;;;;3.67;1.02;;;31.30;36.40;;;;;;4964208;28;20038;-89
2022/09/03 11:46:35;;;;;;;1.63;1.10;;;31.60;36.50;;;;;;4998651;28;20041;-89
2022/09/03 11:49:12;;;;;;;2.45;1.00;;;31.60;36.50;;;;;;4993724;28;20042;-89
2022/09/03 11:51:40;;;;;;;2.78;1.02;;;31.80;34.40;;;;;;4979839;28;20124;-82
2022/09/03 11:54:12;;;;;;;2.78;1.08;;;31.80;36.70;;;;;;4994432;28;20060;-82
2022/09/03 11:56:39;;;;;;;1.73;0.90;;;32.20;36.60;;;;;;5010300;28;20096;-81
2022/09/03 11:59:17;;;;;;;1.10;0.95;;;32.00;36.50;;;;;;5011346;28;20081;-81
2022/09/03 12:02:07;;;;;;;2.25;1.00;;;32.00;34.30;;;;;;5011918;28;20119;-81
2022/09/03 12:04:45;;;;;;;1.35;0.93;;;32.00;34.50;;;;;;4994614;28;20058;-81
2022/09/03 12:07:37;;;;;;;1.15;1.00;;;32.30;35.60;;;;;;4995554;28;20041;-81
2022/09/03 12:10:26;;;;;;;1.52;0.80;;;32.60;33.90;;;;;;5000354;28;20073;-82
2022/09/03 12:13:22;;;;;;;1.75;0.90;;;32.50;34.80;;;;;;5193304;27;20408;-30
2022/09/03 12:16:07;;;;;;;1.70;0.90;;;33.10;34.30;;;;;;5171241;27;20054;-29
2022/09/03 12:18:35;;;;;;;1.50;0.90;;;33.00;33.80;;;;;;5171158;27;20536;-30
2022/09/03 12:21:03;;;;;;;1.10;0.80;;;33.10;33.90;;;;;;5143924;27;20407;-29
2022/09/03 12:23:38;;;;;;;3.65;1.60;;;33.40;33.30;;;;;;5149872;27;20042;-29
2022/09/03 12:26:13;;;;;;;4.38;1.48;;;33.40;33.20;;;;;;5149795;27;20041;-29
2022/09/03 12:28:41;;;;;;;1.98;0.93;;;33.60;32.80;;;;;;5148450;27;20035;-30
2022/09/03 12:31:23;;;;;;;1.40;1.10;;;33.60;32.00;;;;;;5149445;27;20483;-29
2022/09/03 12:33:57;;;;;;;2.47;0.90;;;33.90;33.30;;;;;;5149495;27;20031;-30
2022/09/03 12:36:24;;;;;;;1.02;0.80;;;34.00;32.80;;;;;;5149638;27;20084;-30
2022/09/03 12:38:51;;;;;;;1.40;0.90;;;34.10;33.40;;;;;;5143845;27;20035;-29
2022/09/03 12:41:26;;;;;;;0.90;0.90;;;34.00;32.40;;;;;;5135248;27;20043;-29
2022/09/03 12:43:55;;;;;;;2.72;1.20;;;34.20;31.80;;;;;;5145276;27;20040;-30
2022/09/03 12:48:53;;;;;;;3.45;1.02;;;34.50;31.80;;;;;;5067638;28;20075;-29
2022/09/03 12:51:19;;;;;;;4.07;0.90;;;34.30;31.40;;;;;;5050644;28;20040;-30
2022/09/03 12:53:47;;;;;;;3.00;1.10;;;34.90;32.00;;;;;;5033480;28;20029;-29
2022/09/03 12:56:14;;;;;;;2.63;0.85;;;34.90;30.50;;;;;;5050703;28;20076;-30
2022/09/03 12:58:57;;;;;;;2.17;0.98;;;35.00;31.00;;;;;;5050639;28;20037;-30
2022/09/03 13:01:30;;;;;;;1.48;0.90;;;34.90;31.00;;;;;;5050839;28;20060;-29
2022/09/03 13:04:11;;;;;;;3.83;1.20;;;35.00;31.10;;;;;;5051177;28;20039;-29
2022/09/03 13:06:55;;;;;;;1.42;0.85;;;35.40;31.60;;;;;;5050811;28;20076;-29
2022/09/03 13:09:28;;;;;;;2.00;1.17;;;35.80;31.50;;;;;;5050884;28;20052;-30
2022/09/03 13:11:57;;;;;;;3.22;0.93;;;35.50;30.60;;;;;;5050959;28;20032;-29
2022/09/03 13:14:27;;;;;;;1.02;0.95;;;35.60;31.60;;;;;;5034163;28;20044;-30
2022/09/03 13:17:13;;;;;;;2.05;0.95;;;35.90;31.20;;;;;;5050549;28;20090;-29
2022/09/03 13:20:28;;;;;;;2.55;1.00;;;35.60;30.40;;;;;;5050525;28;20091;-30
2022/09/03 13:23:06;;;;;;;2.83;1.20;;;35.70;31.50;;;;;;5037291;28;20049;-28
2022/09/03 13:25:32;;;;;;;2.33;1.20;;;35.90;30.20;;;;;;5020652;28;20036;-30
2022/09/03 13:28:03;;;;;;;2.10;0.80;;;35.80;30.40;;;;;;5020609;28;20094;-30
2022/09/03 13:30:59;;;;;;;2.00;0.90;;;36.20;30.60;;;;;;5036729;28;20041;-28
2022/09/03 13:33:33;;;;;;;1.30;0.90;;;36.20;31.40;;;;;;5016070;28;20057;-30